sensor_id;sensor_type;location;lat;lon;timestamp;P1;durP1;ratioP1;P2;durP2;ratioP2
3591;SDS011;1810;48.720;9.094;2022-10-18T00:01:06;343.17;;;327.30;;
3591;SDS011;1810;48.720;9.094;2022-10-18T00:04:08;323.58;;;308.73;;
3591;SDS011;1810;48.720;9.094;2022-10-18T00:06:38;332.30;;;316.95;;
3591;SDS011;1810;48.720;9.094;2022-10-18T00:09:10;247.75;;;237.18;;
3591;SDS011;1810;48.720;9.094;2022-10-18T00:11:40;317.85;;;303.50;;
3591;SDS011;1810;48.720;9.094;2022-10-18T00:14:09;326.30;;;311.58;;
3591;SDS011;1810;48.720;9.094;2022-10-18T00:16:39;332.42;;;316.77;;
3591;SDS011;1810;48.720;9.094;2022-10-18T00:19:13;333.55;;;318.35;;
3591;SDS011;1810;48.720;9.094;2022-10-18T00:21:45;264.20;;;252.50;;
3591;SDS011;1810;48.720;9.094;2022-10-18T00:24:19;263.15;;;251.50;;
3591;SDS011;1810;48.720;9.094;2022-10-18T00:26:48;324.45;;;309.65;;
3591;SDS011;1810;48.720;9.094;2022-10-18T00:29:18;258.45;;;247.35;;
3591;SDS011;1810;48.720;9.094;2022-10-18T00:31:47;339.42;;;323.58;;
3591;SDS011;1810;48.720;9.094;2022-10-18T00:34:18;352.08;;;335.70;;
3591;SDS011;1810;48.720;9.094;2022-10-18T00:36:46;276.60;;;264.42;;
3591;SDS011;1810;48.720;9.094;2022-10-18T00:39:15;359.77;;;342.80;;
3591;SDS011;1810;48.720;9.094;2022-10-18T00:41:46;361.13;;;344.15;;
3591;SDS011;1810;48.720;9.094;2022-10-18T00:47:40;234.73;;;224.73;;
3591;SDS011;1810;48.720;9.094;2022-10-18T00:50:10;288.95;;;276.17;;
3591;SDS011;1810;48.720;9.094;2022-10-18T00:52:40;275.42;;;263.45;;
3591;SDS011;1810;48.720;9.094;2022-10-18T00:55:10;260.38;;;248.77;;
3591;SDS011;1810;48.720;9.094;2022-10-18T00:57:39;205.32;;;196.95;;
3591;SDS011;1810;48.720;9.094;2022-10-18T01:00:09;208.70;;;200.23;;
3591;SDS011;1810;48.720;9.094;2022-10-18T01:02:40;195.30;;;187.43;;
3591;SDS011;1810;48.720;9.094;2022-10-18T01:05:13;188.55;;;180.90;;
3591;SDS011;1810;48.720;9.094;2022-10-18T01:07:49;213.10;;;204.27;;
3591;SDS011;1810;48.720;9.094;2022-10-18T01:10:26;214.68;;;205.75;;
3591;SDS011;1810;48.720;9.094;2022-10-18T01:15:55;184.02;;;176.55;;
3591;SDS011;1810;48.720;9.094;2022-10-18T01:18:26;185.38;;;177.85;;
3591;SDS011;1810;48.720;9.094;2022-10-18T01:21:08;190.20;;;182.45;;
3591;SDS011;1810;48.720;9.094;2022-10-18T01:23:51;210.75;;;201.73;;
3591;SDS011;1810;48.720;9.094;2022-10-18T01:26:39;227.05;;;217.73;;
3591;SDS011;1810;48.720;9.094;2022-10-18T01:29:31;229.45;;;220.07;;
3591;SDS011;1810;48.720;9.094;2022-10-18T01:32:10;230.75;;;221.25;;
3591;SDS011;1810;48.720;9.094;2022-10-18T01:34:41;234.30;;;224.60;;
3591;SDS011;1810;48.720;9.094;2022-10-18T01:37:12;264.58;;;253.45;;
3591;SDS011;1810;48.720;9.094;2022-10-18T01:39:44;250.23;;;239.75;;
3591;SDS011;1810;48.720;9.094;2022-10-18T01:42:16;263.85;;;252.77;;
3591;SDS011;1810;48.720;9.094;2022-10-18T01:44:47;254.07;;;243.32;;
3591;SDS011;1810;48.720;9.094;2022-10-18T01:47:19;265.92;;;254.43;;
3591;SDS011;1810;48.720;9.094;2022-10-18T01:49:49;278.40;;;266.48;;
3591;SDS011;1810;48.720;9.094;2022-10-18T01:52:25;229.77;;;220.10;;
3591;SDS011;1810;48.720;9.094;2022-10-18T01:54:55;264.38;;;253.15;;
3591;SDS011;1810;48.720;9.094;2022-10-18T02:00:33;258.25;;;247.35;;
3591;SDS011;1810;48.720;9.094;2022-10-18T02:03:16;246.15;;;235.88;;
3591;SDS011;1810;48.720;9.094;2022-10-18T02:06:08;210.77;;;202.18;;
3591;SDS011;1810;48.720;9.094;2022-10-18T02:11:41;260.15;;;249.15;;
3591;SDS011;1810;48.720;9.094;2022-10-18T03:30:14;261.80;;;250.35;;
3591;SDS011;1810;48.720;9.094;2022-10-18T03:32:43;270.92;;;259.05;;
3591;SDS011;1810;48.720;9.094;2022-10-18T03:35:12;283.83;;;271.73;;
3591;SDS011;1810;48.720;9.094;2022-10-18T03:37:41;273.52;;;261.90;;
3591;SDS011;1810;48.720;9.094;2022-10-18T03:40:10;260.77;;;249.75;;
3591;SDS011;1810;48.720;9.094;2022-10-18T03:42:40;239.32;;;229.40;;
3591;SDS011;1810;48.720;9.094;2022-10-18T03:45:09;268.42;;;256.90;;
3591;SDS011;1810;48.720;9.094;2022-10-18T03:47:41;234.25;;;224.43;;
3591;SDS011;1810;48.720;9.094;2022-10-18T03:50:10;226.05;;;216.60;;
3591;SDS011;1810;48.720;9.094;2022-10-18T03:52:40;269.58;;;257.95;;
3591;SDS011;1810;48.720;9.094;2022-10-18T03:55:09;280.75;;;268.52;;
3591;SDS011;1810;48.720;9.094;2022-10-18T03:57:37;277.30;;;265.45;;
3591;SDS011;1810;48.720;9.094;2022-10-18T04:00:06;244.50;;;234.23;;
3591;SDS011;1810;48.720;9.094;2022-10-18T04:02:36;275.23;;;263.20;;
3591;SDS011;1810;48.720;9.094;2022-10-18T04:05:06;234.20;;;224.43;;
3591;SDS011;1810;48.720;9.094;2022-10-18T04:07:35;277.08;;;265.02;;
3591;SDS011;1810;48.720;9.094;2022-10-18T04:21:01;197.65;;;189.65;;
3591;SDS011;1810;48.720;9.094;2022-10-18T04:23:30;235.23;;;225.60;;
3591;SDS011;1810;48.720;9.094;2022-10-18T04:26:03;213.93;;;205.10;;
3591;SDS011;1810;48.720;9.094;2022-10-18T04:28:33;258.95;;;247.88;;
3591;SDS011;1810;48.720;9.094;2022-10-18T04:31:05;213.25;;;204.52;;
3591;SDS011;1810;48.720;9.094;2022-10-18T04:33:33;232.65;;;223.13;;
3591;SDS011;1810;48.720;9.094;2022-10-18T04:36:04;232.75;;;223.20;;
3591;SDS011;1810;48.720;9.094;2022-10-18T04:38:33;202.50;;;194.43;;
3591;SDS011;1810;48.720;9.094;2022-10-18T04:41:02;205.63;;;197.20;;
3591;SDS011;1810;48.720;9.094;2022-10-18T04:43:30;228.95;;;219.45;;
3591;SDS011;1810;48.720;9.094;2022-10-18T04:45:59;244.13;;;234.07;;
3591;SDS011;1810;48.720;9.094;2022-10-18T04:48:27;205.82;;;197.25;;
3591;SDS011;1810;48.720;9.094;2022-10-18T04:50:56;193.20;;;185.38;;
3591;SDS011;1810;48.720;9.094;2022-10-18T04:53:27;205.20;;;196.65;;
3591;SDS011;1810;48.720;9.094;2022-10-18T04:55:55;195.70;;;187.95;;
3591;SDS011;1810;48.720;9.094;2022-10-18T04:58:24;208.63;;;200.23;;
3591;SDS011;1810;48.720;9.094;2022-10-18T05:00:55;222.25;;;213.25;;
3591;SDS011;1810;48.720;9.094;2022-10-18T05:03:24;223.07;;;213.93;;
3591;SDS011;1810;48.720;9.094;2022-10-18T05:05:52;226.95;;;217.68;;
3591;SDS011;1810;48.720;9.094;2022-10-18T05:08:29;214.57;;;205.77;;
3591;SDS011;1810;48.720;9.094;2022-10-18T05:10:59;225.30;;;216.00;;
3591;SDS011;1810;48.720;9.094;2022-10-18T05:13:27;238.32;;;228.57;;
3591;SDS011;1810;48.720;9.094;2022-10-18T05:15:56;255.82;;;245.18;;
3591;SDS011;1810;48.720;9.094;2022-10-18T05:18:26;254.73;;;244.15;;
3591;SDS011;1810;48.720;9.094;2022-10-18T05:20:54;252.32;;;241.75;;
3591;SDS011;1810;48.720;9.094;2022-10-18T05:23:24;239.00;;;228.90;;
3591;SDS011;1810;48.720;9.094;2022-10-18T05:25:59;224.98;;;215.77;;
3591;SDS011;1810;48.720;9.094;2022-10-18T05:28:28;253.20;;;242.45;;
3591;SDS011;1810;48.720;9.094;2022-10-18T05:31:07;217.68;;;208.88;;
3591;SDS011;1810;48.720;9.094;2022-10-18T05:33:37;205.65;;;197.45;;
3591;SDS011;1810;48.720;9.094;2022-10-18T05:36:07;209.25;;;200.80;;
3591;SDS011;1810;48.720;9.094;2022-10-18T05:38:37;237.05;;;227.20;;
3591;SDS011;1810;48.720;9.094;2022-10-18T05:41:10;219.73;;;210.80;;
3591;SDS011;1810;48.720;9.094;2022-10-18T05:43:39;235.43;;;225.52;;
3591;SDS011;1810;48.720;9.094;2022-10-18T05:46:08;258.23;;;247.20;;
3591;SDS011;1810;48.720;9.094;2022-10-18T05:48:41;339.30;;;323.02;;
3591;SDS011;1810;48.720;9.094;2022-10-18T05:51:10;187.43;;;179.98;;
3591;SDS011;1810;48.720;9.094;2022-10-18T05:53:38;186.90;;;179.38;;
3591;SDS011;1810;48.720;9.094;2022-10-18T05:58:48;201.88;;;193.68;;
3591;SDS011;1810;48.720;9.094;2022-10-18T06:01:17;186.52;;;179.05;;
3591;SDS011;1810;48.720;9.094;2022-10-18T06:03:46;203.75;;;195.63;;
3591;SDS011;1810;48.720;9.094;2022-10-18T06:06:14;174.25;;;166.90;;
3591;SDS011;1810;48.720;9.094;2022-10-18T06:08:43;179.88;;;172.75;;
3591;SDS011;1810;48.720;9.094;2022-10-18T06:11:13;216.25;;;207.52;;
3591;SDS011;1810;48.720;9.094;2022-10-18T06:13:59;204.27;;;195.95;;
3591;SDS011;1810;48.720;9.094;2022-10-18T06:16:28;212.50;;;203.85;;
3591;SDS011;1810;48.720;9.094;2022-10-18T06:18:58;190.65;;;183.05;;
3591;SDS011;1810;48.720;9.094;2022-10-18T06:21:26;198.13;;;190.23;;
3591;SDS011;1810;48.720;9.094;2022-10-18T06:23:55;237.35;;;227.50;;
3591;SDS011;1810;48.720;9.094;2022-10-18T06:26:25;211.93;;;203.43;;
3591;SDS011;1810;48.720;9.094;2022-10-18T06:28:54;231.30;;;221.88;;
3591;SDS011;1810;48.720;9.094;2022-10-18T06:31:25;236.95;;;227.23;;
3591;SDS011;1810;48.720;9.094;2022-10-18T06:33:54;280.50;;;268.55;;
3591;SDS011;1810;48.720;9.094;2022-10-18T06:36:23;279.05;;;266.90;;
3591;SDS011;1810;48.720;9.094;2022-10-18T06:38:52;284.80;;;272.70;;
3591;SDS011;1810;48.720;9.094;2022-10-18T06:41:21;281.40;;;269.42;;
3591;SDS011;1810;48.720;9.094;2022-10-18T06:44:04;280.05;;;268.05;;
3591;SDS011;1810;48.720;9.094;2022-10-18T06:46:40;252.00;;;241.32;;
3591;SDS011;1810;48.720;9.094;2022-10-18T06:49:10;550.75;;;521.20;;
3591;SDS011;1810;48.720;9.094;2022-10-18T06:51:55;269.38;;;257.52;;
3591;SDS011;1810;48.720;9.094;2022-10-18T06:54:23;284.95;;;272.40;;
3591;SDS011;1810;48.720;9.094;2022-10-18T06:56:54;283.77;;;271.30;;
3591;SDS011;1810;48.720;9.094;2022-10-18T06:59:23;282.55;;;270.27;;
3591;SDS011;1810;48.720;9.094;2022-10-18T07:01:58;294.50;;;281.60;;
3591;SDS011;1810;48.720;9.094;2022-10-18T07:04:27;304.45;;;291.23;;
3591;SDS011;1810;48.720;9.094;2022-10-18T07:06:55;289.80;;;277.13;;
3591;SDS011;1810;48.720;9.094;2022-10-18T07:09:25;299.05;;;284.98;;
3591;SDS011;1810;48.720;9.094;2022-10-18T07:11:54;260.65;;;249.60;;
3591;SDS011;1810;48.720;9.094;2022-10-18T07:14:23;241.38;;;231.15;;
3591;SDS011;1810;48.720;9.094;2022-10-18T07:16:58;250.48;;;239.95;;
3591;SDS011;1810;48.720;9.094;2022-10-18T07:19:26;286.63;;;273.85;;
3591;SDS011;1810;48.720;9.094;2022-10-18T07:21:57;287.40;;;274.95;;
3591;SDS011;1810;48.720;9.094;2022-10-18T07:24:26;297.98;;;285.08;;
3591;SDS011;1810;48.720;9.094;2022-10-18T07:26:56;285.17;;;272.77;;
3591;SDS011;1810;48.720;9.094;2022-10-18T07:29:25;310.05;;;296.38;;
3591;SDS011;1810;48.720;9.094;2022-10-18T07:31:54;293.33;;;280.65;;
3591;SDS011;1810;48.720;9.094;2022-10-18T07:34:24;287.60;;;275.05;;
3591;SDS011;1810;48.720;9.094;2022-10-18T07:36:54;263.98;;;252.75;;
3591;SDS011;1810;48.720;9.094;2022-10-18T07:39:22;296.17;;;283.30;;
3591;SDS011;1810;48.720;9.094;2022-10-18T07:41:51;247.43;;;236.93;;
3591;SDS011;1810;48.720;9.094;2022-10-18T07:44:19;277.77;;;265.88;;
3591;SDS011;1810;48.720;9.094;2022-10-18T07:46:48;266.40;;;255.23;;
3591;SDS011;1810;48.720;9.094;2022-10-18T07:49:16;261.48;;;250.23;;
3591;SDS011;1810;48.720;9.094;2022-10-18T07:51:47;260.48;;;249.63;;
3591;SDS011;1810;48.720;9.094;2022-10-18T07:54:23;258.75;;;247.70;;
3591;SDS011;1810;48.720;9.094;2022-10-18T07:56:52;254.18;;;243.73;;
3591;SDS011;1810;48.720;9.094;2022-10-18T07:59:20;245.85;;;235.57;;
3591;SDS011;1810;48.720;9.094;2022-10-18T08:01:49;258.80;;;248.13;;
3591;SDS011;1810;48.720;9.094;2022-10-18T08:04:18;260.92;;;250.13;;
3591;SDS011;1810;48.720;9.094;2022-10-18T08:06:48;263.58;;;252.48;;
3591;SDS011;1810;48.720;9.094;2022-10-18T08:09:17;249.57;;;239.27;;
3591;SDS011;1810;48.720;9.094;2022-10-18T08:11:45;259.58;;;248.70;;
3591;SDS011;1810;48.720;9.094;2022-10-18T08:14:14;273.75;;;262.10;;
3591;SDS011;1810;48.720;9.094;2022-10-18T08:16:42;279.08;;;267.38;;
3591;SDS011;1810;48.720;9.094;2022-10-18T08:19:11;275.83;;;264.27;;
3591;SDS011;1810;48.720;9.094;2022-10-18T08:21:39;268.02;;;256.85;;
3591;SDS011;1810;48.720;9.094;2022-10-18T08:24:09;288.02;;;276.08;;
3591;SDS011;1810;48.720;9.094;2022-10-18T08:26:38;278.10;;;266.45;;
3591;SDS011;1810;48.720;9.094;2022-10-18T08:29:06;258.88;;;248.07;;
3591;SDS011;1810;48.720;9.094;2022-10-18T08:31:48;399.13;;;380.73;;
3591;SDS011;1810;48.720;9.094;2022-10-18T08:34:17;267.85;;;256.80;;
3591;SDS011;1810;48.720;9.094;2022-10-18T08:36:45;258.45;;;247.55;;
3591;SDS011;1810;48.720;9.094;2022-10-18T08:39:15;277.27;;;265.50;;
3591;SDS011;1810;48.720;9.094;2022-10-18T08:41:49;286.75;;;274.65;;
3591;SDS011;1810;48.720;9.094;2022-10-18T08:44:38;427.63;;;407.10;;
3591;SDS011;1810;48.720;9.094;2022-10-18T08:47:11;269.77;;;258.60;;
3591;SDS011;1810;48.720;9.094;2022-10-18T08:49:41;278.80;;;267.00;;
3591;SDS011;1810;48.720;9.094;2022-10-18T08:52:15;272.02;;;260.55;;
3591;SDS011;1810;48.720;9.094;2022-10-18T08:54:51;281.98;;;269.95;;
3591;SDS011;1810;48.720;9.094;2022-10-18T08:57:22;276.77;;;265.02;;
3591;SDS011;1810;48.720;9.094;2022-10-18T08:59:51;275.95;;;264.17;;
3591;SDS011;1810;48.720;9.094;2022-10-18T09:02:25;263.10;;;252.10;;
3591;SDS011;1810;48.720;9.094;2022-10-18T09:05:02;259.13;;;248.32;;
3591;SDS011;1810;48.720;9.094;2022-10-18T09:07:41;257.20;;;246.38;;
3591;SDS011;1810;48.720;9.094;2022-10-18T09:10:43;245.77;;;235.60;;
3591;SDS011;1810;48.720;9.094;2022-10-18T09:13:19;244.40;;;234.05;;
3591;SDS011;1810;48.720;9.094;2022-10-18T09:16:02;243.43;;;233.45;;
3591;SDS011;1810;48.720;9.094;2022-10-18T09:18:43;256.95;;;246.23;;
3591;SDS011;1810;48.720;9.094;2022-10-18T09:21:22;313.60;;;299.85;;
3591;SDS011;1810;48.720;9.094;2022-10-18T09:23:55;353.50;;;337.83;;
3591;SDS011;1810;48.720;9.094;2022-10-18T09:26:31;279.52;;;267.65;;
3591;SDS011;1810;48.720;9.094;2022-10-18T09:29:08;286.77;;;274.70;;
3591;SDS011;1810;48.720;9.094;2022-10-18T09:31:49;294.95;;;282.33;;
3591;SDS011;1810;48.720;9.094;2022-10-18T09:34:24;298.25;;;285.55;;
3591;SDS011;1810;48.720;9.094;2022-10-18T09:36:56;297.88;;;285.15;;
3591;SDS011;1810;48.720;9.094;2022-10-18T09:39:27;339.98;;;324.80;;
3591;SDS011;1810;48.720;9.094;2022-10-18T09:41:59;336.92;;;321.77;;
3591;SDS011;1810;48.720;9.094;2022-10-18T09:44:32;335.35;;;320.45;;
3591;SDS011;1810;48.720;9.094;2022-10-18T09:47:04;342.98;;;327.80;;
3591;SDS011;1810;48.720;9.094;2022-10-18T09:49:43;318.98;;;304.85;;
3591;SDS011;1810;48.720;9.094;2022-10-18T09:52:14;325.00;;;310.88;;
3591;SDS011;1810;48.720;9.094;2022-10-18T09:54:46;413.35;;;393.27;;
3591;SDS011;1810;48.720;9.094;2022-10-18T09:57:22;341.40;;;325.23;;
3591;SDS011;1810;48.720;9.094;2022-10-18T09:59:52;321.37;;;307.23;;
3591;SDS011;1810;48.720;9.094;2022-10-18T10:02:22;637.00;;;600.65;;
3591;SDS011;1810;48.720;9.094;2022-10-18T10:04:51;785.38;;;734.03;;
3591;SDS011;1810;48.720;9.094;2022-10-18T10:07:23;685.83;;;644.47;;
3591;SDS011;1810;48.720;9.094;2022-10-18T10:09:58;331.20;;;316.80;;
3591;SDS011;1810;48.720;9.094;2022-10-18T10:12:37;321.10;;;307.27;;
3591;SDS011;1810;48.720;9.094;2022-10-18T10:15:08;326.02;;;311.38;;
3591;SDS011;1810;48.720;9.094;2022-10-18T10:17:42;328.98;;;314.20;;
3591;SDS011;1810;48.720;9.094;2022-10-18T10:30:52;373.17;;;355.27;;
3591;SDS011;1810;48.720;9.094;2022-10-18T10:33:29;375.80;;;357.98;;
3591;SDS011;1810;48.720;9.094;2022-10-18T10:35:59;374.63;;;356.70;;
3591;SDS011;1810;48.720;9.094;2022-10-18T10:38:30;378.42;;;360.50;;
3591;SDS011;1810;48.720;9.094;2022-10-18T10:40:58;341.45;;;325.88;;
3591;SDS011;1810;48.720;9.094;2022-10-18T11:02:49;338.80;;;323.48;;
3591;SDS011;1810;48.720;9.094;2022-10-18T11:05:53;379.98;;;362.48;;
3591;SDS011;1810;48.720;9.094;2022-10-18T11:08:34;328.60;;;313.95;;
3591;SDS011;1810;48.720;9.094;2022-10-18T11:11:08;322.33;;;308.00;;
3591;SDS011;1810;48.720;9.094;2022-10-18T11:13:48;331.17;;;316.33;;
3591;SDS011;1810;48.720;9.094;2022-10-18T11:16:40;306.48;;;292.73;;
3591;SDS011;1810;48.720;9.094;2022-10-18T11:19:27;314.60;;;300.30;;
3591;SDS011;1810;48.720;9.094;2022-10-18T11:21:59;329.83;;;315.00;;
3591;SDS011;1810;48.720;9.094;2022-10-18T11:24:30;317.65;;;303.50;;
3591;SDS011;1810;48.720;9.094;2022-10-18T11:27:01;306.95;;;293.33;;
3591;SDS011;1810;48.720;9.094;2022-10-18T11:29:46;335.27;;;319.92;;
3591;SDS011;1810;48.720;9.094;2022-10-18T11:32:21;332.10;;;317.00;;
3591;SDS011;1810;48.720;9.094;2022-10-18T11:37:38;384.98;;;366.77;;
3591;SDS011;1810;48.720;9.094;2022-10-18T11:40:36;380.98;;;362.90;;
3591;SDS011;1810;48.720;9.094;2022-10-18T11:43:15;384.08;;;366.10;;
3591;SDS011;1810;48.720;9.094;2022-10-18T11:45:47;372.98;;;355.50;;
3591;SDS011;1810;48.720;9.094;2022-10-18T11:48:48;372.73;;;355.15;;
3591;SDS011;1810;48.720;9.094;2022-10-18T11:51:29;413.73;;;393.67;;
3591;SDS011;1810;48.720;9.094;2022-10-18T11:54:26;375.23;;;357.63;;
3591;SDS011;1810;48.720;9.094;2022-10-18T11:57:19;337.83;;;322.40;;
3591;SDS011;1810;48.720;9.094;2022-10-18T12:00:06;352.65;;;336.40;;
3591;SDS011;1810;48.720;9.094;2022-10-18T12:02:53;356.48;;;340.15;;
3591;SDS011;1810;48.720;9.094;2022-10-18T12:05:38;363.02;;;346.05;;
3591;SDS011;1810;48.720;9.094;2022-10-18T12:08:10;352.25;;;335.83;;
3591;SDS011;1810;48.720;9.094;2022-10-18T12:10:42;363.05;;;345.95;;
3591;SDS011;1810;48.720;9.094;2022-10-18T12:13:35;380.40;;;362.23;;
3591;SDS011;1810;48.720;9.094;2022-10-18T12:19:00;401.70;;;382.50;;
3591;SDS011;1810;48.720;9.094;2022-10-18T12:21:39;373.40;;;355.83;;
3591;SDS011;1810;48.720;9.094;2022-10-18T12:40:42;376.90;;;359.48;;
3591;SDS011;1810;48.720;9.094;2022-10-18T12:43:31;367.70;;;350.58;;
3591;SDS011;1810;48.720;9.094;2022-10-18T12:46:02;347.30;;;331.38;;
3591;SDS011;1810;48.720;9.094;2022-10-18T12:48:39;361.17;;;344.63;;
3591;SDS011;1810;48.720;9.094;2022-10-18T12:51:26;355.65;;;339.27;;
3591;SDS011;1810;48.720;9.094;2022-10-18T12:54:08;367.45;;;350.23;;
3591;SDS011;1810;48.720;9.094;2022-10-18T13:29:52;350.52;;;334.40;;
3591;SDS011;1810;48.720;9.094;2022-10-18T13:36:32;298.60;;;285.50;;
3591;SDS011;1810;48.720;9.094;2022-10-18T13:39:03;313.90;;;300.13;;
3591;SDS011;1810;48.720;9.094;2022-10-18T13:44:48;368.92;;;350.10;;
3591;SDS011;1810;48.720;9.094;2022-10-18T13:50:31;328.52;;;314.08;;
3591;SDS011;1810;48.720;9.094;2022-10-18T14:49:57;297.17;;;284.20;;
3591;SDS011;1810;48.720;9.094;2022-10-18T14:52:29;316.58;;;302.48;;
3591;SDS011;1810;48.720;9.094;2022-10-18T14:55:24;298.77;;;285.95;;
3591;SDS011;1810;48.720;9.094;2022-10-18T14:58:30;307.45;;;293.88;;
3591;SDS011;1810;48.720;9.094;2022-10-18T15:01:12;302.98;;;289.83;;
3591;SDS011;1810;48.720;9.094;2022-10-18T15:44:47;286.80;;;274.08;;
3591;SDS011;1810;48.720;9.094;2022-10-18T16:11:55;351.60;;;335.40;;
3591;SDS011;1810;48.720;9.094;2022-10-18T16:14:26;362.55;;;345.65;;
3591;SDS011;1810;48.720;9.094;2022-10-18T16:17:32;389.60;;;371.10;;
3591;SDS011;1810;48.720;9.094;2022-10-18T16:23:59;400.58;;;381.70;;
3591;SDS011;1810;48.720;9.094;2022-10-18T16:30:08;402.88;;;383.83;;
3591;SDS011;1810;48.720;9.094;2022-10-18T16:32:38;414.48;;;394.60;;
3591;SDS011;1810;48.720;9.094;2022-10-18T16:35:07;429.88;;;409.08;;
3591;SDS011;1810;48.720;9.094;2022-10-18T16:37:51;429.30;;;408.38;;
3591;SDS011;1810;48.720;9.094;2022-10-18T16:40:22;447.25;;;425.20;;
3591;SDS011;1810;48.720;9.094;2022-10-18T16:42:51;421.27;;;400.90;;
3591;SDS011;1810;48.720;9.094;2022-10-18T16:45:27;448.33;;;425.95;;
3591;SDS011;1810;48.720;9.094;2022-10-18T16:47:57;474.23;;;450.17;;
3591;SDS011;1810;48.720;9.094;2022-10-18T16:50:26;449.08;;;427.33;;
3591;SDS011;1810;48.720;9.094;2022-10-18T16:53:08;466.85;;;443.13;;
3591;SDS011;1810;48.720;9.094;2022-10-18T18:46:19;487.75;;;462.70;;
3591;SDS011;1810;48.720;9.094;2022-10-18T18:48:49;512.03;;;484.40;;
3591;SDS011;1810;48.720;9.094;2022-10-18T18:51:18;546.45;;;516.25;;
3591;SDS011;1810;48.720;9.094;2022-10-18T18:53:47;567.45;;;535.75;;
3591;SDS011;1810;48.720;9.094;2022-10-18T18:56:16;526.00;;;497.77;;
3591;SDS011;1810;48.720;9.094;2022-10-18T18:58:46;499.02;;;473.40;;
3591;SDS011;1810;48.720;9.094;2022-10-18T19:01:32;527.20;;;498.67;;
3591;SDS011;1810;48.720;9.094;2022-10-18T19:04:03;434.52;;;413.95;;
3591;SDS011;1810;48.720;9.094;2022-10-18T19:06:33;522.25;;;494.55;;
3591;SDS011;1810;48.720;9.094;2022-10-18T19:09:03;445.58;;;424.20;;
3591;SDS011;1810;48.720;9.094;2022-10-18T19:11:33;497.80;;;472.08;;
3591;SDS011;1810;48.720;9.094;2022-10-18T19:14:04;540.28;;;511.02;;
3591;SDS011;1810;48.720;9.094;2022-10-18T19:16:35;457.65;;;435.08;;
3591;SDS011;1810;48.720;9.094;2022-10-18T19:19:05;535.08;;;506.52;;
3591;SDS011;1810;48.720;9.094;2022-10-18T19:21:38;543.42;;;513.80;;
3591;SDS011;1810;48.720;9.094;2022-10-18T19:24:07;494.95;;;469.45;;
3591;SDS011;1810;48.720;9.094;2022-10-18T19:26:37;535.38;;;506.17;;
3591;SDS011;1810;48.720;9.094;2022-10-18T19:29:10;443.50;;;422.30;;
3591;SDS011;1810;48.720;9.094;2022-10-18T19:31:42;496.05;;;470.42;;
3591;SDS011;1810;48.720;9.094;2022-10-18T19:34:11;509.67;;;482.58;;
3591;SDS011;1810;48.720;9.094;2022-10-18T19:36:41;506.73;;;479.88;;
3591;SDS011;1810;48.720;9.094;2022-10-18T19:39:12;587.83;;;554.28;;
3591;SDS011;1810;48.720;9.094;2022-10-18T19:55:10;553.33;;;522.15;;
3591;SDS011;1810;48.720;9.094;2022-10-18T19:57:38;539.15;;;509.58;;
3591;SDS011;1810;48.720;9.094;2022-10-18T20:00:07;609.35;;;573.05;;
3591;SDS011;1810;48.720;9.094;2022-10-18T20:02:40;484.38;;;459.65;;
3591;SDS011;1810;48.720;9.094;2022-10-18T20:05:09;471.98;;;448.27;;
3591;SDS011;1810;48.720;9.094;2022-10-18T20:08:09;575.40;;;542.45;;
3591;SDS011;1810;48.720;9.094;2022-10-18T20:13:59;468.83;;;446.02;;
3591;SDS011;1810;48.720;9.094;2022-10-18T20:16:31;599.28;;;563.90;;
3591;SDS011;1810;48.720;9.094;2022-10-18T20:19:03;639.42;;;599.55;;
3591;SDS011;1810;48.720;9.094;2022-10-18T20:21:35;605.35;;;569.60;;
3591;SDS011;1810;48.720;9.094;2022-10-18T20:24:07;477.48;;;452.40;;
3591;SDS011;1810;48.720;9.094;2022-10-18T20:26:39;464.60;;;441.73;;
3591;SDS011;1810;48.720;9.094;2022-10-18T20:31:58;450.05;;;427.60;;
3591;SDS011;1810;48.720;9.094;2022-10-18T20:34:29;473.08;;;449.08;;
3591;SDS011;1810;48.720;9.094;2022-10-18T20:37:04;453.85;;;431.35;;
3591;SDS011;1810;48.720;9.094;2022-10-18T20:39:33;472.80;;;448.88;;
3591;SDS011;1810;48.720;9.094;2022-10-18T20:42:08;565.80;;;533.45;;
3591;SDS011;1810;48.720;9.094;2022-10-18T20:44:39;601.53;;;565.88;;
3591;SDS011;1810;48.720;9.094;2022-10-18T20:47:08;475.58;;;451.40;;
3591;SDS011;1810;48.720;9.094;2022-10-18T20:49:37;507.00;;;479.63;;
3591;SDS011;1810;48.720;9.094;2022-10-18T20:52:11;528.50;;;499.10;;
3591;SDS011;1810;48.720;9.094;2022-10-18T20:54:40;545.47;;;514.85;;
3591;SDS011;1810;48.720;9.094;2022-10-18T20:57:08;425.83;;;405.13;;
3591;SDS011;1810;48.720;9.094;2022-10-18T20:59:38;526.50;;;496.80;;
3591;SDS011;1810;48.720;9.094;2022-10-18T21:02:08;479.67;;;454.65;;
3591;SDS011;1810;48.720;9.094;2022-10-18T21:04:37;528.92;;;499.55;;
3591;SDS011;1810;48.720;9.094;2022-10-18T21:07:07;554.60;;;523.08;;
3591;SDS011;1810;48.720;9.094;2022-10-18T21:09:36;467.08;;;443.70;;
3591;SDS011;1810;48.720;9.094;2022-10-18T21:12:04;588.30;;;553.90;;
3591;SDS011;1810;48.720;9.094;2022-10-18T21:14:33;452.20;;;429.75;;
3591;SDS011;1810;48.720;9.094;2022-10-18T21:17:03;514.42;;;486.17;;
3591;SDS011;1810;48.720;9.094;2022-10-18T21:19:32;585.42;;;550.80;;
3591;SDS011;1810;48.720;9.094;2022-10-18T21:22:00;483.42;;;457.90;;
3591;SDS011;1810;48.720;9.094;2022-10-18T21:24:29;486.60;;;460.92;;
3591;SDS011;1810;48.720;9.094;2022-10-18T21:27:14;446.95;;;424.35;;
3591;SDS011;1810;48.720;9.094;2022-10-18T21:38:27;531.10;;;501.52;;
3591;SDS011;1810;48.720;9.094;2022-10-18T21:40:56;513.03;;;484.70;;
3591;SDS011;1810;48.720;9.094;2022-10-18T21:43:25;553.65;;;521.83;;
3591;SDS011;1810;48.720;9.094;2022-10-18T21:45:57;532.63;;;502.17;;
3591;SDS011;1810;48.720;9.094;2022-10-18T21:48:26;532.42;;;501.98;;
3591;SDS011;1810;48.720;9.094;2022-10-18T21:50:55;498.27;;;472.02;;
3591;SDS011;1810;48.720;9.094;2022-10-18T21:53:29;504.63;;;477.55;;
3591;SDS011;1810;48.720;9.094;2022-10-18T21:56:02;485.45;;;459.85;;
3591;SDS011;1810;48.720;9.094;2022-10-18T21:58:32;449.35;;;427.15;;
3591;SDS011;1810;48.720;9.094;2022-10-18T22:01:01;477.02;;;452.95;;
3591;SDS011;1810;48.720;9.094;2022-10-18T22:03:34;505.52;;;478.40;;
3591;SDS011;1810;48.720;9.094;2022-10-18T22:06:03;498.13;;;471.13;;
3591;SDS011;1810;48.720;9.094;2022-10-18T22:08:36;437.70;;;416.30;;
3591;SDS011;1810;48.720;9.094;2022-10-18T22:11:06;450.15;;;427.85;;
3591;SDS011;1810;48.720;9.094;2022-10-18T22:13:34;535.95;;;505.73;;
3591;SDS011;1810;48.720;9.094;2022-10-18T22:16:04;513.88;;;485.58;;
3591;SDS011;1810;48.720;9.094;2022-10-18T22:18:33;479.50;;;454.55;;
3591;SDS011;1810;48.720;9.094;2022-10-18T22:21:03;522.45;;;493.92;;
3591;SDS011;1810;48.720;9.094;2022-10-18T22:23:32;477.63;;;452.95;;
3591;SDS011;1810;48.720;9.094;2022-10-18T22:26:04;583.72;;;548.70;;
3591;SDS011;1810;48.720;9.094;2022-10-18T22:28:34;525.83;;;496.83;;
3591;SDS011;1810;48.720;9.094;2022-10-18T22:31:04;515.00;;;488.10;;
3591;SDS011;1810;48.720;9.094;2022-10-18T22:33:33;463.33;;;439.90;;
3591;SDS011;1810;48.720;9.094;2022-10-18T22:36:02;569.90;;;537.30;;
3591;SDS011;1810;48.720;9.094;2022-10-18T22:38:31;528.05;;;499.10;;
3591;SDS011;1810;48.720;9.094;2022-10-18T22:41:03;474.10;;;450.15;;